createdAt,value
2019-03-12T00:00:04.504Z,73.57
2019-03-12T00:02:31.751Z,73.33
2019-03-12T00:04:59.034Z,73.13
2019-03-12T00:07:26.330Z,72.92
2019-03-12T00:09:53.961Z,73.10
2019-03-12T00:12:21.359Z,73.11
2019-03-12T00:14:48.601Z,72.83
2019-03-12T00:17:15.895Z,72.72
2019-03-12T00:19:43.139Z,72.66
2019-03-12T00:22:10.390Z,72.38
2019-03-12T00:24:37.720Z,72.16
2019-03-12T00:27:04.950Z,72.04
2019-03-12T00:29:32.207Z,72.06
2019-03-12T00:31:59.493Z,72.26
2019-03-12T00:34:26.738Z,72.45
2019-03-12T00:36:54.023Z,72.64
2019-03-12T00:39:21.279Z,72.86
2019-03-12T00:41:48.517Z,73.06
2019-03-12T00:44:15.808Z,73.80
2019-03-12T00:46:43.104Z,74.12
2019-03-12T00:49:10.386Z,74.60
2019-03-12T00:51:37.665Z,74.43
2019-03-12T00:54:04.990Z,74.87
2019-03-12T00:56:32.321Z,74.83
2019-03-12T00:58:59.565Z,74.89
2019-03-12T01:01:26.862Z,74.83
2019-03-12T01:03:54.123Z,74.46
2019-03-12T01:06:21.354Z,74.58
2019-03-12T01:08:48.652Z,74.59
2019-03-12T01:11:15.932Z,74.20
2019-03-12T01:13:43.229Z,74.13
2019-03-12T01:16:10.461Z,73.97
2019-03-12T01:18:37.697Z,73.89
2019-03-12T01:21:04.972Z,73.75
2019-03-12T01:23:32.242Z,73.72
2019-03-12T01:25:59.540Z,73.67
2019-03-12T01:28:26.801Z,73.54
2019-03-12T01:30:54.056Z,73.50
2019-03-12T01:33:21.353Z,73.45
2019-03-12T01:35:48.604Z,73.38
2019-03-12T01:38:15.921Z,73.31
2019-03-12T01:40:43.232Z,72.99
2019-03-12T01:43:10.472Z,73.04
2019-03-12T01:45:37.726Z,73.08
2019-03-12T01:48:05.036Z,73.11
2019-03-12T01:50:32.298Z,73.23
2019-03-12T01:52:59.541Z,73.47
2019-03-12T01:55:26.837Z,73.61
2019-03-12T01:57:54.089Z,73.95
2019-03-12T02:00:21.333Z,74.42
2019-03-12T02:02:48.598Z,74.83
2019-03-12T02:05:15.853Z,74.78
2019-03-12T02:07:43.239Z,74.60
2019-03-12T02:10:10.818Z,74.57
2019-03-12T02:12:38.144Z,74.65
2019-03-12T02:15:06.628Z,74.85
2019-03-12T02:17:33.894Z,74.86
2019-03-12T02:20:01.255Z,75.13
2019-03-12T02:22:28.546Z,75.45
2019-03-12T02:24:55.822Z,75.77
2019-03-12T02:27:23.087Z,76.07
2019-03-12T02:29:50.347Z,76.35
2019-03-12T02:32:17.614Z,76.01
2019-03-12T02:34:44.873Z,75.99
2019-03-12T02:37:12.322Z,75.89
2019-03-12T02:39:39.604Z,76.40
2019-03-12T02:42:06.887Z,76.43
2019-03-12T02:44:34.209Z,76.21
2019-03-12T02:47:01.465Z,76.38
2019-03-12T02:49:28.767Z,76.28
2019-03-12T02:51:56.022Z,76.38
2019-03-12T02:54:23.311Z,76.02
2019-03-12T02:56:50.584Z,75.91
2019-03-12T02:59:17.874Z,76.04
2019-03-12T03:01:45.132Z,76.02
2019-03-12T03:04:12.395Z,75.78
2019-03-12T03:06:57.145Z,75.97
2019-03-12T03:09:24.437Z,75.79
2019-03-12T03:11:51.757Z,75.87
2019-03-12T03:14:47.822Z,75.85
2019-03-12T03:17:15.844Z,76.16
2019-03-12T03:19:43.083Z,76.02
2019-03-12T03:22:10.358Z,75.95
2019-03-12T03:24:37.592Z,75.99
2019-03-12T03:27:04.820Z,75.96
2019-03-12T03:29:32.083Z,75.64
2019-03-12T03:31:59.327Z,75.49
2019-03-12T03:34:28.156Z,75.68
2019-03-12T03:36:55.833Z,75.37
2019-03-12T03:39:23.401Z,75.56
2019-03-12T03:41:50.667Z,75.56
2019-03-12T03:44:17.977Z,75.66
2019-03-12T03:46:45.308Z,75.48
2019-03-12T03:49:12.595Z,75.23
2019-03-12T03:51:39.843Z,74.98
2019-03-12T03:54:07.094Z,74.92
2019-03-12T03:56:34.390Z,74.88
2019-03-12T03:59:01.688Z,74.79
2019-03-12T04:01:29.268Z,74.79
2019-03-12T04:03:56.555Z,74.88
2019-03-12T04:06:23.817Z,75.14
2019-03-12T04:08:51.152Z,75.06
2019-03-12T04:11:18.405Z,75.34
2019-03-12T04:13:45.647Z,74.97
2019-03-12T04:16:12.958Z,75.01
2019-03-12T04:18:40.211Z,74.87
2019-03-12T04:21:07.500Z,74.94
2019-03-12T04:23:34.766Z,75.12
2019-03-12T04:26:02.106Z,74.76
2019-03-12T04:28:29.402Z,74.70
2019-03-12T04:30:56.657Z,74.53
2019-03-12T04:34:07.923Z,74.44
2019-03-12T04:36:35.300Z,74.54
2019-03-12T04:39:04.351Z,74.72
2019-03-12T04:41:31.633Z,74.63
2019-03-12T04:43:58.895Z,74.85
2019-03-12T04:46:26.206Z,74.59
2019-03-12T04:48:53.522Z,74.83
2019-03-12T04:51:20.792Z,74.77
2019-03-12T04:53:48.071Z,74.94
2019-03-12T04:56:15.392Z,74.93
2019-03-12T04:58:42.742Z,74.93
2019-03-12T05:01:09.985Z,74.95
2019-03-12T05:03:37.309Z,74.46
2019-03-12T05:06:04.575Z,74.67
2019-03-12T05:08:31.838Z,74.31
2019-03-12T05:10:59.160Z,74.36
2019-03-12T05:13:26.449Z,74.22
2019-03-12T05:15:53.714Z,74.20
2019-03-12T05:18:21.299Z,74.40
2019-03-12T05:20:49.425Z,74.26
2019-03-12T05:23:16.777Z,74.41
2019-03-12T05:25:44.053Z,74.03
2019-03-12T05:28:11.307Z,74.25
2019-03-12T05:30:38.618Z,74.10
2019-03-12T05:33:05.874Z,74.15
2019-03-12T05:35:33.160Z,74.18
2019-03-12T05:38:00.414Z,74.27
2019-03-12T05:40:27.674Z,74.17
2019-03-12T05:42:54.950Z,74.49
2019-03-12T05:45:22.286Z,74.63
2019-03-12T05:47:49.563Z,74.92
2019-03-12T05:50:16.808Z,75.11
2019-03-12T05:52:44.056Z,75.07
2019-03-12T05:55:13.228Z,74.93
2019-03-12T05:57:40.649Z,75.66
2019-03-12T06:00:09.449Z,75.75
2019-03-12T06:02:36.749Z,75.58
2019-03-12T06:05:04.486Z,75.53
2019-03-12T06:07:31.814Z,75.49
2019-03-12T06:09:59.080Z,75.79
2019-03-12T06:12:26.322Z,75.90
2019-03-12T06:14:53.619Z,76.05
2019-03-12T06:17:20.876Z,76.38
2019-03-12T06:19:48.181Z,76.59
2019-03-12T06:22:15.470Z,76.70
2019-03-12T06:24:42.705Z,76.78
2019-03-12T06:27:10.014Z,77.11
2019-03-12T06:29:37.272Z,76.97
2019-03-12T06:32:39.264Z,76.96
2019-03-12T06:35:13.795Z,77.28
2019-03-12T06:37:49.099Z,77.31
2019-03-12T06:40:44.768Z,77.32
2019-03-12T06:43:17.659Z,77.22
2019-03-12T06:46:03.929Z,77.23
2019-03-12T06:48:50.626Z,77.04
2019-03-12T06:51:43.039Z,77.09
2019-03-12T06:54:44.996Z,76.86
2019-03-12T06:57:32.603Z,76.81
2019-03-12T07:00:11.397Z,76.91
2019-03-12T07:03:13.352Z,76.82
2019-03-12T07:06:12.489Z,76.95
2019-03-12T07:09:05.412Z,77.03
2019-03-12T07:11:39.442Z,77.05
2019-03-12T07:14:22.934Z,77.41
2019-03-12T07:16:57.205Z,77.56
2019-03-12T07:19:55.351Z,77.89
2019-03-12T07:22:48.334Z,78.08
2019-03-12T07:25:37.773Z,78.25
2019-03-12T07:28:27.431Z,78.15
2019-03-12T07:31:06.662Z,78.14
2019-03-12T07:33:52.116Z,78.34
2019-03-12T07:36:38.895Z,78.71
2019-03-12T07:39:44.192Z,78.74
2019-03-12T07:42:29.687Z,78.55
2019-03-12T07:45:15.485Z,78.78
2019-03-12T07:48:20.361Z,78.80
2019-03-12T07:51:10.222Z,78.75
2019-03-12T07:53:59.779Z,78.91
2019-03-12T07:56:41.056Z,78.71
2019-03-12T07:59:35.085Z,78.86
2019-03-12T08:02:24.911Z,78.90
2019-03-12T08:05:20.745Z,78.87
2019-03-12T08:08:05.841Z,78.72
2019-03-12T08:10:55.477Z,78.34
2019-03-12T08:13:40.878Z,78.20
2019-03-12T08:16:33.376Z,78.28
2019-03-12T08:19:18.277Z,78.00
2019-03-12T08:21:57.650Z,77.92
2019-03-12T08:24:35.660Z,78.01
2019-03-12T08:27:21.356Z,77.86
2019-03-12T08:30:06.726Z,77.82
2019-03-12T08:32:56.161Z,77.76
2019-03-12T08:35:35.141Z,77.75
2019-03-12T08:38:21.949Z,78.04
2019-03-12T08:41:11.627Z,78.22
2019-03-12T08:43:56.415Z,78.22
2019-03-12T08:46:37.648Z,78.30
2019-03-12T08:49:14.290Z,78.14
2019-03-12T08:52:03.719Z,77.97
2019-03-12T08:54:53.466Z,77.67
2019-03-12T08:57:48.076Z,77.71
2019-03-12T09:00:28.613Z,77.62
2019-03-12T09:03:07.605Z,77.64
2019-03-12T09:06:00.238Z,77.43
2019-03-12T09:08:46.215Z,77.28
2019-03-12T09:11:33.056Z,77.15
2019-03-12T09:14:18.640Z,77.16
2019-03-12T09:17:00.162Z,77.13
2019-03-12T09:19:49.804Z,76.88
2019-03-12T09:22:35.077Z,76.56
2019-03-12T09:25:22.767Z,76.70
2019-03-12T09:28:13.854Z,76.56
2019-03-12T09:31:03.190Z,76.63
2019-03-12T09:33:45.386Z,76.34
2019-03-12T09:36:21.388Z,75.59
2019-03-12T09:38:59.359Z,75.68
2019-03-12T09:41:37.024Z,75.36
2019-03-12T09:44:26.428Z,75.30
2019-03-12T09:47:02.490Z,74.94
2019-03-12T09:49:43.971Z,74.75
2019-03-12T09:52:25.888Z,75.12
2019-03-12T09:55:04.871Z,74.73
2019-03-12T09:57:45.597Z,75.33
2019-03-12T10:00:24.886Z,75.42
2019-03-12T10:03:09.402Z,74.53
2019-03-12T10:05:59.115Z,74.17
2019-03-12T10:08:50.622Z,74.71
2019-03-12T10:11:31.752Z,74.46
2019-03-12T10:14:17.126Z,73.85
2019-03-12T10:17:00.554Z,73.29
2019-03-12T10:19:53.326Z,73.14
2019-03-12T10:22:46.091Z,73.03
2019-03-12T10:25:35.750Z,73.09
2019-03-12T10:28:21.440Z,72.51
2019-03-12T10:31:10.981Z,71.80
2019-03-12T10:34:06.760Z,71.61
2019-03-12T10:36:47.982Z,71.41
2019-03-12T10:40:19.988Z,71.08
2019-03-12T10:43:15.293Z,71.05
2019-03-12T10:46:04.738Z,70.46
2019-03-12T11:16:26.745Z,68.47
2019-03-12T11:18:55.140Z,68.06
2019-03-12T11:21:23.942Z,68.64
2019-03-12T11:23:54.086Z,68.06
2019-03-12T11:26:21.502Z,67.37
2019-03-12T11:28:48.865Z,67.38
2019-03-12T11:31:16.115Z,66.92
2019-03-12T11:33:49.263Z,67.53
2019-03-12T11:36:16.534Z,66.79
2019-03-12T11:38:44.184Z,67.30
2019-03-12T11:41:11.495Z,67.49
2019-03-12T11:43:38.783Z,66.70
2019-03-12T11:46:06.098Z,67.80
2019-03-12T11:48:33.357Z,67.14
2019-03-12T11:51:00.741Z,67.15
2019-03-12T11:53:28.218Z,67.95
2019-03-12T11:55:55.495Z,66.04
2019-03-12T11:58:22.779Z,66.70
2019-03-12T12:00:55.893Z,66.09
2019-03-12T12:03:23.275Z,66.14
2019-03-12T12:05:50.515Z,64.51
2019-03-12T12:08:17.852Z,65.83
2019-03-12T12:10:45.079Z,65.35
2019-03-12T12:13:12.352Z,65.84
2019-03-12T12:15:39.665Z,65.77
2019-03-12T12:18:07.121Z,65.27
2019-03-12T12:20:34.374Z,64.35
2019-03-12T12:23:02.059Z,65.17
2019-03-12T12:25:29.344Z,65.27
2019-03-12T12:27:56.596Z,65.48
2019-03-12T12:30:24.129Z,63.73
2019-03-12T12:32:51.577Z,65.04
2019-03-12T12:35:18.978Z,65.29
2019-03-12T12:37:46.263Z,63.29
2019-03-12T12:40:14.302Z,64.04
2019-03-12T12:42:41.635Z,65.45
2019-03-12T12:45:11.764Z,64.12
2019-03-12T12:47:39.051Z,65.58
2019-03-12T12:50:06.633Z,64.13
2019-03-12T12:52:33.916Z,64.36
2019-03-12T12:55:01.162Z,65.23
2019-03-12T12:57:28.510Z,64.18
2019-03-12T12:59:55.825Z,63.76
2019-03-12T13:02:23.115Z,65.58
2019-03-12T13:04:50.465Z,65.33
2019-03-12T13:07:17.702Z,65.08
2019-03-12T13:09:44.971Z,64.03
2019-03-12T13:12:12.252Z,64.86
2019-03-12T13:14:41.766Z,64.05
2019-03-12T13:17:08.832Z,65.25
2019-03-12T13:19:36.227Z,64.67
2019-03-12T13:22:03.612Z,65.50
2019-03-12T13:24:30.964Z,65.93
2019-03-12T13:26:58.200Z,67.47
2019-03-12T13:29:25.540Z,66.09
2019-03-12T13:31:52.887Z,66.15
2019-03-12T13:34:20.159Z,66.87
2019-03-12T13:36:47.510Z,65.01
2019-03-12T13:39:14.968Z,65.01
2019-03-12T13:41:42.215Z,63.37
2019-03-12T13:44:09.553Z,63.40
2019-03-12T13:46:36.894Z,64.69
2019-03-12T13:49:04.294Z,65.39
2019-03-12T13:51:31.728Z,65.47
2019-03-12T13:53:59.053Z,65.90
2019-03-12T13:56:26.348Z,67.68
2019-03-12T13:58:53.608Z,67.48
2019-03-12T14:01:20.881Z,65.85
2019-03-12T14:03:48.167Z,65.56
2019-03-12T14:06:15.470Z,64.46
2019-03-12T14:08:42.749Z,64.90
2019-03-12T14:11:10.049Z,64.68
2019-03-12T14:13:37.352Z,65.72
2019-03-12T14:16:04.788Z,64.73
2019-03-12T14:18:32.147Z,66.03
2019-03-12T14:21:02.993Z,65.37
2019-03-12T14:23:33.528Z,63.82
2019-03-12T14:26:00.917Z,65.15
2019-03-12T14:28:28.363Z,61.98
2019-03-12T14:30:55.885Z,62.48
2019-03-12T14:33:23.189Z,63.38
2019-03-12T14:35:52.259Z,64.26
2019-03-12T14:38:19.972Z,64.33
2019-03-12T14:40:47.290Z,63.60
2019-03-12T14:43:14.688Z,63.13
2019-03-12T14:45:48.758Z,63.74
2019-03-12T14:48:41.438Z,63.77
2019-03-12T14:51:21.651Z,64.24
2019-03-12T14:53:49.966Z,63.18
2019-03-12T14:56:17.405Z,64.49
2019-03-12T14:58:44.840Z,63.82
2019-03-12T15:01:12.189Z,63.87
2019-03-12T15:03:39.470Z,63.77
2019-03-12T15:06:06.950Z,63.87
2019-03-12T15:08:34.214Z,63.62
2019-03-12T15:11:01.627Z,64.50
2019-03-12T15:13:28.966Z,63.36
2019-03-12T15:15:56.336Z,64.12
2019-03-12T15:18:23.640Z,64.85
2019-03-12T15:20:50.964Z,65.61
2019-03-12T15:23:18.223Z,63.24
2019-03-12T15:25:45.478Z,63.54
2019-03-12T15:28:12.821Z,64.22
2019-03-12T15:30:40.214Z,64.22
2019-03-12T15:33:07.464Z,63.90
2019-03-12T15:35:34.884Z,63.20
2019-03-12T15:38:02.228Z,63.95
2019-03-12T15:40:29.537Z,61.77
2019-03-12T15:42:57.210Z,62.34
2019-03-12T15:45:24.512Z,63.75
2019-03-12T15:47:51.822Z,60.32
2019-03-12T15:50:19.318Z,62.17
2019-03-12T15:52:46.582Z,60.31
2019-03-12T15:55:13.827Z,61.80
2019-03-12T15:57:41.127Z,61.91
2019-03-12T16:00:08.833Z,62.42
2019-03-12T16:02:36.241Z,62.86
2019-03-12T16:05:04.151Z,62.06
2019-03-12T16:07:31.466Z,62.82
2019-03-12T16:09:59.443Z,62.63
2019-03-12T16:12:26.762Z,63.02
2019-03-12T16:14:54.050Z,63.02
2019-03-12T16:17:21.524Z,63.72
2019-03-12T16:19:48.782Z,66.12
2019-03-12T16:22:16.059Z,65.78
2019-03-12T16:24:43.342Z,65.78
2019-03-12T16:27:10.603Z,65.98
2019-03-12T16:29:37.871Z,66.54
2019-03-12T16:32:05.186Z,66.30
2019-03-12T16:34:32.442Z,65.75
2019-03-12T16:36:59.754Z,66.39
2019-03-12T16:39:27.007Z,66.39
2019-03-12T16:41:54.245Z,65.34
2019-03-12T16:44:21.553Z,65.06
2019-03-12T16:46:48.930Z,65.28
2019-03-12T16:49:16.204Z,65.56
2019-03-12T16:51:43.995Z,65.31
2019-03-12T16:54:13.379Z,65.64
2019-03-12T16:56:45.469Z,64.94
2019-03-12T16:59:09.860Z,64.65
2019-03-12T17:01:37.326Z,64.26
2019-03-12T17:04:04.620Z,63.96
2019-03-12T17:06:31.884Z,64.07
2019-03-12T17:08:59.555Z,64.67
2019-03-12T17:11:26.834Z,63.45
2019-03-12T17:13:54.117Z,63.99
2019-03-12T17:16:23.842Z,64.21
2019-03-12T17:19:02.326Z,63.33
2019-03-12T17:21:32.628Z,63.61
2019-03-12T17:23:58.912Z,63.62
2019-03-12T17:26:26.185Z,62.52
2019-03-12T17:28:54.477Z,63.89
2019-03-12T17:31:21.777Z,63.74
2019-03-12T17:33:49.107Z,64.14
2019-03-12T17:36:16.409Z,63.89
2019-03-12T17:38:46.807Z,64.14
2019-03-12T17:41:13.845Z,63.60
2019-03-12T17:43:41.101Z,63.56
2019-03-12T17:46:12.155Z,63.97
2019-03-12T17:48:39.503Z,63.35
2019-03-12T17:51:06.912Z,63.29
2019-03-12T17:53:34.196Z,64.35
2019-03-12T17:56:01.502Z,64.14
2019-03-12T17:58:28.955Z,64.38
2019-03-12T18:00:56.243Z,63.09
2019-03-12T18:03:23.478Z,64.67
2019-03-12T18:05:50.780Z,63.88
2019-03-12T18:08:18.074Z,64.08
2019-03-12T18:10:45.961Z,64.55
2019-03-12T18:13:13.316Z,64.94
2019-03-12T18:15:40.747Z,65.56
2019-03-12T18:18:08.051Z,67.74
2019-03-12T18:20:35.884Z,67.82
2019-03-12T18:23:03.143Z,67.53
2019-03-12T18:25:30.535Z,68.17
2019-03-12T18:27:57.957Z,68.29
2019-03-12T18:30:25.207Z,69.07
2019-03-12T18:32:52.680Z,68.73
2019-03-12T18:35:20.001Z,69.52
2019-03-12T18:37:47.253Z,69.77
2019-03-12T18:40:16.233Z,70.06
2019-03-12T18:42:43.503Z,69.97
2019-03-12T18:45:13.423Z,70.55
2019-03-12T18:47:40.983Z,70.63
2019-03-12T18:50:09.578Z,71.20
2019-03-12T18:52:36.832Z,70.85
2019-03-12T18:55:04.721Z,70.83
2019-03-12T18:57:32.037Z,71.19
2019-03-12T18:59:59.709Z,71.34
2019-03-12T19:02:26.963Z,70.83
2019-03-12T19:04:54.887Z,70.63
2019-03-12T19:07:22.144Z,70.72
2019-03-12T19:09:49.475Z,71.46
2019-03-12T19:12:16.750Z,71.34
2019-03-12T19:14:44.005Z,71.56
2019-03-12T19:17:14.125Z,71.93
2019-03-12T19:19:41.495Z,72.44
2019-03-12T19:22:09.082Z,72.19
2019-03-12T19:24:36.401Z,72.60
2019-03-12T19:27:04.222Z,72.35
2019-03-12T19:29:31.556Z,72.84
2019-03-12T19:32:11.877Z,72.73
2019-03-12T19:34:39.272Z,72.74
2019-03-12T19:37:06.653Z,73.19
2019-03-12T19:39:34.778Z,73.54
2019-03-12T19:42:02.292Z,73.02
2019-03-12T19:44:32.462Z,73.11
2019-03-12T19:46:59.865Z,73.75
2019-03-12T19:49:27.120Z,73.66
2019-03-12T19:51:54.381Z,74.25
2019-03-12T19:54:21.756Z,74.33
2019-03-12T19:56:49.026Z,74.79
2019-03-12T19:59:16.282Z,74.48
2019-03-12T20:01:44.541Z,74.96
2019-03-12T20:04:12.000Z,74.86
2019-03-12T20:06:39.563Z,74.88
2019-03-12T20:09:13.538Z,75.14
2019-03-12T20:12:08.612Z,71.08
2019-03-12T20:15:13.340Z,73.42
2019-03-12T20:18:25.739Z,73.58
2019-03-12T20:21:25.995Z,75.31
2019-03-12T20:24:40.264Z,76.25
2019-03-12T20:28:10.359Z,76.64
2019-03-12T20:31:14.035Z,77.24
2019-03-12T20:34:07.344Z,76.89
2019-03-12T20:37:34.363Z,75.85
2019-03-12T20:40:42.195Z,75.90
2019-03-12T20:43:45.721Z,76.33
2019-03-12T20:47:01.761Z,77.24
2019-03-12T20:50:29.111Z,76.34
2019-03-12T20:53:30.416Z,78.20
2019-03-12T20:56:34.522Z,77.55
2019-03-12T20:59:48.710Z,77.47
2019-03-12T21:03:09.051Z,78.11
2019-03-12T21:06:24.246Z,78.21
2019-03-12T21:09:31.997Z,77.96
2019-03-12T21:12:36.086Z,77.49
2019-03-12T21:15:34.330Z,78.17
2019-03-12T21:18:44.447Z,78.86
2019-03-12T21:22:04.731Z,77.69
2019-03-12T21:25:12.867Z,77.95
2019-03-12T21:28:32.404Z,80.20
2019-03-12T21:30:59.675Z,78.62
2019-03-12T21:33:26.916Z,77.90
2019-03-12T21:35:54.327Z,78.49
2019-03-12T21:38:21.611Z,77.47
2019-03-12T21:40:48.878Z,78.35
2019-03-12T21:43:16.189Z,77.33
2019-03-12T21:45:43.479Z,77.61
2019-03-12T21:48:10.834Z,76.65
2019-03-12T21:50:38.127Z,77.52
2019-03-12T21:53:05.564Z,78.22
2019-03-12T21:55:32.841Z,76.31
2019-03-12T21:58:00.084Z,76.62
2019-03-12T22:00:27.428Z,77.09
2019-03-12T22:02:54.666Z,76.76
2019-03-12T22:05:21.928Z,78.36
2019-03-12T22:07:49.237Z,76.10
2019-03-12T22:10:16.556Z,75.86
2019-03-12T22:12:43.875Z,75.36
2019-03-12T22:15:11.177Z,75.66
2019-03-12T22:17:38.517Z,75.43
2019-03-12T22:20:07.241Z,75.92
2019-03-12T22:22:39.135Z,74.96
2019-03-12T22:25:08.423Z,76.44
2019-03-12T22:27:35.722Z,75.04
2019-03-12T22:30:03.213Z,75.17
2019-03-12T22:32:30.495Z,74.71
2019-03-12T22:34:57.755Z,75.05
2019-03-12T22:37:25.143Z,75.23
2019-03-12T22:39:52.429Z,75.68
2019-03-12T22:42:19.710Z,75.88
2019-03-12T22:44:47.031Z,74.62
2019-03-12T22:47:14.298Z,74.84
2019-03-12T22:49:41.610Z,74.21
2019-03-12T22:52:08.849Z,74.32
2019-03-12T22:54:37.354Z,75.71
2019-03-12T22:57:04.643Z,74.80
2019-03-12T22:59:31.960Z,75.65
2019-03-12T23:01:59.256Z,74.96
2019-03-12T23:04:26.566Z,74.33
2019-03-12T23:06:53.910Z,74.12
2019-03-12T23:09:21.166Z,73.16
2019-03-12T23:11:48.475Z,74.42
2019-03-12T23:14:15.784Z,73.65
2019-03-12T23:16:43.145Z,73.45
2019-03-12T23:19:10.436Z,73.80
2019-03-12T23:21:37.756Z,74.07
2019-03-12T23:24:05.135Z,73.91
2019-03-12T23:26:32.460Z,74.28
2019-03-12T23:28:59.798Z,74.61
2019-03-12T23:31:27.049Z,74.66
2019-03-12T23:33:54.350Z,75.05
2019-03-12T23:36:21.627Z,74.77
2019-03-12T23:38:48.863Z,74.90
2019-03-12T23:41:16.206Z,74.44
2019-03-12T23:43:43.486Z,74.61
2019-03-12T23:46:10.762Z,74.33
2019-03-12T23:48:38.095Z,74.96
2019-03-12T23:51:05.494Z,75.11
2019-03-12T23:53:33.190Z,74.87
2019-03-12T23:56:00.452Z,75.01
2019-03-12T23:58:30.811Z,75.47
